sensor_id;sensor_type;location;lat;lon;timestamp;P1;durP1;ratioP1;P2;durP2;ratioP2
55312;SDS011;46892;45.668;11.756;2023-05-20T00:00:26;10.77;;;4.10;;
55312;SDS011;46892;45.668;11.756;2023-05-20T00:02:51;7.10;;;4.43;;
55312;SDS011;46892;45.668;11.756;2023-05-20T00:05:17;5.60;;;3.80;;
55312;SDS011;46892;45.668;11.756;2023-05-20T00:07:43;6.10;;;4.03;;
55312;SDS011;46892;45.668;11.756;2023-05-20T00:10:08;5.37;;;3.77;;
55312;SDS011;46892;45.668;11.756;2023-05-20T00:12:35;6.23;;;3.90;;
55312;SDS011;46892;45.668;11.756;2023-05-20T00:15:02;6.97;;;4.40;;
55312;SDS011;46892;45.668;11.756;2023-05-20T00:17:29;5.83;;;4.17;;
55312;SDS011;46892;45.668;11.756;2023-05-20T00:19:54;7.10;;;4.93;;
55312;SDS011;46892;45.668;11.756;2023-05-20T00:22:20;8.47;;;5.10;;
55312;SDS011;46892;45.668;11.756;2023-05-20T00:24:46;5.50;;;4.23;;
55312;SDS011;46892;45.668;11.756;2023-05-20T00:27:12;5.47;;;4.30;;
55312;SDS011;46892;45.668;11.756;2023-05-20T00:29:37;6.63;;;4.20;;
55312;SDS011;46892;45.668;11.756;2023-05-20T00:32:03;5.83;;;3.97;;
55312;SDS011;46892;45.668;11.756;2023-05-20T00:34:29;5.57;;;3.90;;
55312;SDS011;46892;45.668;11.756;2023-05-20T00:36:55;7.03;;;4.17;;
55312;SDS011;46892;45.668;11.756;2023-05-20T00:39:20;5.80;;;3.97;;
55312;SDS011;46892;45.668;11.756;2023-05-20T00:41:46;4.47;;;3.70;;
55312;SDS011;46892;45.668;11.756;2023-05-20T00:44:11;6.03;;;3.70;;
55312;SDS011;46892;45.668;11.756;2023-05-20T00:46:37;7.37;;;4.13;;
55312;SDS011;46892;45.668;11.756;2023-05-20T00:49:03;6.53;;;3.53;;
55312;SDS011;46892;45.668;11.756;2023-05-20T00:51:29;5.90;;;3.97;;
55312;SDS011;46892;45.668;11.756;2023-05-20T00:53:55;5.13;;;3.37;;
55312;SDS011;46892;45.668;11.756;2023-05-20T00:56:21;5.63;;;3.77;;
55312;SDS011;46892;45.668;11.756;2023-05-20T00:58:48;5.47;;;3.87;;
55312;SDS011;46892;45.668;11.756;2023-05-20T01:01:14;4.93;;;3.40;;
55312;SDS011;46892;45.668;11.756;2023-05-20T01:03:40;5.30;;;3.87;;
55312;SDS011;46892;45.668;11.756;2023-05-20T01:06:05;5.70;;;3.60;;
55312;SDS011;46892;45.668;11.756;2023-05-20T01:08:31;5.50;;;3.47;;
55312;SDS011;46892;45.668;11.756;2023-05-20T01:13:32;5.20;;;3.50;;
55312;SDS011;46892;45.668;11.756;2023-05-20T01:16:03;5.23;;;3.83;;
55312;SDS011;46892;45.668;11.756;2023-05-20T01:18:29;5.37;;;3.83;;
55312;SDS011;46892;45.668;11.756;2023-05-20T01:20:56;6.40;;;4.17;;
55312;SDS011;46892;45.668;11.756;2023-05-20T01:23:46;6.43;;;3.63;;
55312;SDS011;46892;45.668;11.756;2023-05-20T01:26:11;6.00;;;3.60;;
55312;SDS011;46892;45.668;11.756;2023-05-20T01:28:38;4.77;;;3.50;;
55312;SDS011;46892;45.668;11.756;2023-05-20T01:31:04;5.13;;;3.40;;
55312;SDS011;46892;45.668;11.756;2023-05-20T01:33:43;4.97;;;3.60;;
55312;SDS011;46892;45.668;11.756;2023-05-20T01:36:10;5.60;;;3.87;;
55312;SDS011;46892;45.668;11.756;2023-05-20T01:38:36;7.43;;;3.83;;
55312;SDS011;46892;45.668;11.756;2023-05-20T01:41:04;5.50;;;3.80;;
55312;SDS011;46892;45.668;11.756;2023-05-20T01:43:31;13.60;;;4.47;;
55312;SDS011;46892;45.668;11.756;2023-05-20T01:45:57;5.37;;;3.90;;
55312;SDS011;46892;45.668;11.756;2023-05-20T01:48:22;5.20;;;3.60;;
55312;SDS011;46892;45.668;11.756;2023-05-20T01:50:48;6.27;;;3.87;;
55312;SDS011;46892;45.668;11.756;2023-05-20T01:53:14;5.90;;;3.87;;
55312;SDS011;46892;45.668;11.756;2023-05-20T01:55:39;7.03;;;4.20;;
55312;SDS011;46892;45.668;11.756;2023-05-20T01:58:05;5.57;;;4.07;;
55312;SDS011;46892;45.668;11.756;2023-05-20T02:00:31;6.83;;;4.00;;
55312;SDS011;46892;45.668;11.756;2023-05-20T02:02:58;5.20;;;3.53;;
55312;SDS011;46892;45.668;11.756;2023-05-20T02:05:23;6.00;;;4.10;;
55312;SDS011;46892;45.668;11.756;2023-05-20T02:07:49;5.40;;;4.00;;
55312;SDS011;46892;45.668;11.756;2023-05-20T02:10:15;6.43;;;4.40;;
55312;SDS011;46892;45.668;11.756;2023-05-20T02:12:41;5.43;;;4.20;;
55312;SDS011;46892;45.668;11.756;2023-05-20T02:15:07;6.17;;;3.80;;
55312;SDS011;46892;45.668;11.756;2023-05-20T02:17:33;6.57;;;4.33;;
55312;SDS011;46892;45.668;11.756;2023-05-20T02:19:58;7.47;;;4.20;;
55312;SDS011;46892;45.668;11.756;2023-05-20T02:22:24;6.97;;;4.20;;
55312;SDS011;46892;45.668;11.756;2023-05-20T02:24:50;7.27;;;4.27;;
55312;SDS011;46892;45.668;11.756;2023-05-20T02:27:15;6.07;;;4.37;;
55312;SDS011;46892;45.668;11.756;2023-05-20T02:29:41;7.47;;;4.50;;
55312;SDS011;46892;45.668;11.756;2023-05-20T02:32:08;7.27;;;4.20;;
55312;SDS011;46892;45.668;11.756;2023-05-20T02:34:33;5.77;;;3.90;;
55312;SDS011;46892;45.668;11.756;2023-05-20T02:36:59;7.50;;;5.43;;
55312;SDS011;46892;45.668;11.756;2023-05-20T02:39:25;6.27;;;4.87;;
55312;SDS011;46892;45.668;11.756;2023-05-20T02:41:52;5.03;;;4.00;;
55312;SDS011;46892;45.668;11.756;2023-05-20T02:44:18;6.57;;;4.10;;
55312;SDS011;46892;45.668;11.756;2023-05-20T02:46:43;6.13;;;3.97;;
55312;SDS011;46892;45.668;11.756;2023-05-20T02:49:09;6.10;;;3.97;;
55312;SDS011;46892;45.668;11.756;2023-05-20T02:51:35;7.03;;;4.50;;
55312;SDS011;46892;45.668;11.756;2023-05-20T02:54:01;8.00;;;4.40;;
55312;SDS011;46892;45.668;11.756;2023-05-20T02:56:26;8.00;;;4.90;;
55312;SDS011;46892;45.668;11.756;2023-05-20T02:58:52;6.77;;;4.90;;
55312;SDS011;46892;45.668;11.756;2023-05-20T03:01:18;7.03;;;5.20;;
55312;SDS011;46892;45.668;11.756;2023-05-20T03:03:44;6.50;;;4.97;;
55312;SDS011;46892;45.668;11.756;2023-05-20T03:06:09;8.47;;;4.97;;
55312;SDS011;46892;45.668;11.756;2023-05-20T03:08:35;5.93;;;4.10;;
55312;SDS011;46892;45.668;11.756;2023-05-20T03:11:03;8.50;;;6.67;;
55312;SDS011;46892;45.668;11.756;2023-05-20T03:13:29;8.87;;;6.40;;
55312;SDS011;46892;45.668;11.756;2023-05-20T03:15:55;8.43;;;4.87;;
55312;SDS011;46892;45.668;11.756;2023-05-20T03:18:20;5.47;;;3.87;;
55312;SDS011;46892;45.668;11.756;2023-05-20T03:20:46;6.20;;;4.43;;
55312;SDS011;46892;45.668;11.756;2023-05-20T03:23:12;7.10;;;4.63;;
55312;SDS011;46892;45.668;11.756;2023-05-20T03:25:37;6.20;;;4.50;;
55312;SDS011;46892;45.668;11.756;2023-05-20T03:28:04;7.83;;;5.00;;
55312;SDS011;46892;45.668;11.756;2023-05-20T03:30:30;5.70;;;4.10;;
55312;SDS011;46892;45.668;11.756;2023-05-20T03:32:56;5.93;;;4.00;;
55312;SDS011;46892;45.668;11.756;2023-05-20T03:35:22;6.13;;;3.83;;
55312;SDS011;46892;45.668;11.756;2023-05-20T03:37:48;6.60;;;3.80;;
55312;SDS011;46892;45.668;11.756;2023-05-20T03:40:15;6.17;;;4.30;;
55312;SDS011;46892;45.668;11.756;2023-05-20T03:42:41;5.73;;;4.10;;
55312;SDS011;46892;45.668;11.756;2023-05-20T03:45:07;6.13;;;3.50;;
55312;SDS011;46892;45.668;11.756;2023-05-20T03:47:33;6.50;;;3.40;;
55312;SDS011;46892;45.668;11.756;2023-05-20T03:49:58;5.30;;;3.40;;
55312;SDS011;46892;45.668;11.756;2023-05-20T03:52:24;5.57;;;2.93;;
55312;SDS011;46892;45.668;11.756;2023-05-20T03:54:50;6.27;;;3.13;;
55312;SDS011;46892;45.668;11.756;2023-05-20T03:57:17;4.97;;;3.17;;
55312;SDS011;46892;45.668;11.756;2023-05-20T03:59:43;5.30;;;3.33;;
55312;SDS011;46892;45.668;11.756;2023-05-20T04:02:09;4.23;;;3.13;;
55312;SDS011;46892;45.668;11.756;2023-05-20T04:04:35;7.00;;;4.20;;
55312;SDS011;46892;45.668;11.756;2023-05-20T04:07:00;4.57;;;3.30;;
55312;SDS011;46892;45.668;11.756;2023-05-20T04:09:28;4.13;;;2.83;;
55312;SDS011;46892;45.668;11.756;2023-05-20T04:11:54;5.80;;;3.60;;
55312;SDS011;46892;45.668;11.756;2023-05-20T04:14:21;3.83;;;2.97;;
55312;SDS011;46892;45.668;11.756;2023-05-20T04:16:46;6.90;;;3.43;;
55312;SDS011;46892;45.668;11.756;2023-05-20T04:19:12;5.33;;;3.20;;
55312;SDS011;46892;45.668;11.756;2023-05-20T04:21:37;5.03;;;2.83;;
55312;SDS011;46892;45.668;11.756;2023-05-20T04:24:03;4.33;;;2.60;;
55312;SDS011;46892;45.668;11.756;2023-05-20T04:26:29;5.37;;;3.10;;
55312;SDS011;46892;45.668;11.756;2023-05-20T04:28:55;6.00;;;3.00;;
55312;SDS011;46892;45.668;11.756;2023-05-20T04:31:23;4.23;;;2.90;;
55312;SDS011;46892;45.668;11.756;2023-05-20T04:33:51;4.13;;;2.67;;
55312;SDS011;46892;45.668;11.756;2023-05-20T04:36:17;5.00;;;2.77;;
55312;SDS011;46892;45.668;11.756;2023-05-20T04:38:43;4.63;;;3.10;;
55312;SDS011;46892;45.668;11.756;2023-05-20T04:41:09;4.57;;;2.97;;
55312;SDS011;46892;45.668;11.756;2023-05-20T04:43:35;4.20;;;2.73;;
55312;SDS011;46892;45.668;11.756;2023-05-20T04:46:02;4.13;;;2.90;;
55312;SDS011;46892;45.668;11.756;2023-05-20T04:48:31;4.40;;;2.90;;
55312;SDS011;46892;45.668;11.756;2023-05-20T04:50:57;6.97;;;3.20;;
55312;SDS011;46892;45.668;11.756;2023-05-20T04:53:23;5.13;;;2.83;;
55312;SDS011;46892;45.668;11.756;2023-05-20T04:55:49;5.07;;;2.80;;
55312;SDS011;46892;45.668;11.756;2023-05-20T04:58:18;7.97;;;2.97;;
55312;SDS011;46892;45.668;11.756;2023-05-20T05:00:44;6.67;;;3.00;;
55312;SDS011;46892;45.668;11.756;2023-05-20T05:03:10;8.27;;;3.43;;
55312;SDS011;46892;45.668;11.756;2023-05-20T05:05:39;5.20;;;2.63;;
55312;SDS011;46892;45.668;11.756;2023-05-20T05:08:06;5.73;;;2.90;;
55312;SDS011;46892;45.668;11.756;2023-05-20T05:10:32;5.43;;;2.90;;
55312;SDS011;46892;45.668;11.756;2023-05-20T05:12:58;3.57;;;2.70;;
55312;SDS011;46892;45.668;11.756;2023-05-20T05:15:25;4.23;;;2.70;;
55312;SDS011;46892;45.668;11.756;2023-05-20T05:17:50;5.67;;;2.70;;
55312;SDS011;46892;45.668;11.756;2023-05-20T05:20:16;5.27;;;2.93;;
55312;SDS011;46892;45.668;11.756;2023-05-20T05:22:42;4.70;;;3.20;;
55312;SDS011;46892;45.668;11.756;2023-05-20T05:25:09;4.10;;;2.80;;
55312;SDS011;46892;45.668;11.756;2023-05-20T05:27:35;3.90;;;2.63;;
55312;SDS011;46892;45.668;11.756;2023-05-20T05:30:01;3.93;;;2.40;;
55312;SDS011;46892;45.668;11.756;2023-05-20T05:32:28;3.70;;;2.30;;
55312;SDS011;46892;45.668;11.756;2023-05-20T05:34:53;4.50;;;2.90;;
55312;SDS011;46892;45.668;11.756;2023-05-20T05:37:19;3.57;;;2.50;;
55312;SDS011;46892;45.668;11.756;2023-05-20T05:39:45;4.13;;;2.43;;
55312;SDS011;46892;45.668;11.756;2023-05-20T05:42:11;3.33;;;2.70;;
55312;SDS011;46892;45.668;11.756;2023-05-20T05:44:37;4.17;;;3.00;;
55312;SDS011;46892;45.668;11.756;2023-05-20T05:47:02;4.20;;;2.57;;
55312;SDS011;46892;45.668;11.756;2023-05-20T05:49:30;4.67;;;2.60;;
55312;SDS011;46892;45.668;11.756;2023-05-20T05:51:55;3.33;;;2.53;;
55312;SDS011;46892;45.668;11.756;2023-05-20T05:54:21;3.43;;;2.43;;
55312;SDS011;46892;45.668;11.756;2023-05-20T05:56:46;5.00;;;2.90;;
55312;SDS011;46892;45.668;11.756;2023-05-20T05:59:12;5.23;;;3.27;;
55312;SDS011;46892;45.668;11.756;2023-05-20T06:01:39;6.20;;;2.87;;
55312;SDS011;46892;45.668;11.756;2023-05-20T06:04:05;3.33;;;2.63;;
55312;SDS011;46892;45.668;11.756;2023-05-20T06:06:30;3.27;;;2.60;;
55312;SDS011;46892;45.668;11.756;2023-05-20T06:08:56;5.73;;;2.87;;
55312;SDS011;46892;45.668;11.756;2023-05-20T06:11:22;4.93;;;3.30;;
55312;SDS011;46892;45.668;11.756;2023-05-20T06:13:48;5.03;;;3.00;;
55312;SDS011;46892;45.668;11.756;2023-05-20T06:16:14;3.90;;;2.80;;
55312;SDS011;46892;45.668;11.756;2023-05-20T06:18:41;4.77;;;2.90;;
55312;SDS011;46892;45.668;11.756;2023-05-20T06:21:07;4.77;;;3.20;;
55312;SDS011;46892;45.668;11.756;2023-05-20T06:23:32;6.77;;;3.77;;
55312;SDS011;46892;45.668;11.756;2023-05-20T06:25:58;5.10;;;3.80;;
55312;SDS011;46892;45.668;11.756;2023-05-20T06:28:25;4.27;;;3.23;;
55312;SDS011;46892;45.668;11.756;2023-05-20T06:30:53;4.63;;;3.33;;
55312;SDS011;46892;45.668;11.756;2023-05-20T06:33:19;5.27;;;3.33;;
55312;SDS011;46892;45.668;11.756;2023-05-20T06:35:50;4.40;;;3.10;;
55312;SDS011;46892;45.668;11.756;2023-05-20T06:38:17;5.90;;;3.30;;
55312;SDS011;46892;45.668;11.756;2023-05-20T06:40:43;4.60;;;3.37;;
55312;SDS011;46892;45.668;11.756;2023-05-20T06:43:08;5.07;;;3.10;;
55312;SDS011;46892;45.668;11.756;2023-05-20T06:45:34;5.73;;;3.30;;
55312;SDS011;46892;45.668;11.756;2023-05-20T06:48:00;3.80;;;2.90;;
55312;SDS011;46892;45.668;11.756;2023-05-20T06:50:25;6.87;;;3.50;;
55312;SDS011;46892;45.668;11.756;2023-05-20T06:52:52;5.77;;;3.37;;
55312;SDS011;46892;45.668;11.756;2023-05-20T06:55:18;5.53;;;3.40;;
55312;SDS011;46892;45.668;11.756;2023-05-20T06:57:44;5.57;;;3.60;;
55312;SDS011;46892;45.668;11.756;2023-05-20T07:00:10;5.60;;;3.33;;
55312;SDS011;46892;45.668;11.756;2023-05-20T07:02:37;5.10;;;3.20;;
55312;SDS011;46892;45.668;11.756;2023-05-20T07:05:04;4.87;;;3.10;;
55312;SDS011;46892;45.668;11.756;2023-05-20T07:07:30;4.57;;;3.23;;
55312;SDS011;46892;45.668;11.756;2023-05-20T07:09:56;5.43;;;3.40;;
55312;SDS011;46892;45.668;11.756;2023-05-20T07:12:22;5.17;;;3.30;;
55312;SDS011;46892;45.668;11.756;2023-05-20T07:14:48;5.77;;;3.73;;
55312;SDS011;46892;45.668;11.756;2023-05-20T07:17:14;7.43;;;3.70;;
55312;SDS011;46892;45.668;11.756;2023-05-20T07:19:40;4.50;;;3.27;;
55312;SDS011;46892;45.668;11.756;2023-05-20T07:22:05;4.67;;;3.33;;
55312;SDS011;46892;45.668;11.756;2023-05-20T07:24:31;4.43;;;2.97;;
55312;SDS011;46892;45.668;11.756;2023-05-20T07:26:57;6.07;;;3.53;;
55312;SDS011;46892;45.668;11.756;2023-05-20T07:29:23;6.53;;;3.77;;
55312;SDS011;46892;45.668;11.756;2023-05-20T07:31:49;4.67;;;3.33;;
55312;SDS011;46892;45.668;11.756;2023-05-20T07:34:15;5.37;;;3.63;;
55312;SDS011;46892;45.668;11.756;2023-05-20T07:36:41;9.20;;;3.67;;
55312;SDS011;46892;45.668;11.756;2023-05-20T07:39:07;4.90;;;3.50;;
55312;SDS011;46892;45.668;11.756;2023-05-20T07:41:34;4.90;;;3.30;;
55312;SDS011;46892;45.668;11.756;2023-05-20T07:44:01;6.93;;;3.67;;
55312;SDS011;46892;45.668;11.756;2023-05-20T07:46:29;8.23;;;4.30;;
55312;SDS011;46892;45.668;11.756;2023-05-20T07:48:55;9.83;;;3.87;;
55312;SDS011;46892;45.668;11.756;2023-05-20T07:51:21;10.50;;;4.33;;
55312;SDS011;46892;45.668;11.756;2023-05-20T07:53:46;10.50;;;4.00;;
55312;SDS011;46892;45.668;11.756;2023-05-20T07:56:12;7.77;;;4.30;;
55312;SDS011;46892;45.668;11.756;2023-05-20T07:58:41;5.77;;;4.10;;
55312;SDS011;46892;45.668;11.756;2023-05-20T08:01:07;5.70;;;4.07;;
55312;SDS011;46892;45.668;11.756;2023-05-20T08:03:33;5.53;;;4.07;;
55312;SDS011;46892;45.668;11.756;2023-05-20T08:06:02;5.17;;;3.97;;
55312;SDS011;46892;45.668;11.756;2023-05-20T08:08:28;5.80;;;4.07;;
55312;SDS011;46892;45.668;11.756;2023-05-20T08:10:57;5.90;;;4.10;;
55312;SDS011;46892;45.668;11.756;2023-05-20T08:13:23;9.07;;;4.40;;
55312;SDS011;46892;45.668;11.756;2023-05-20T08:15:51;7.07;;;4.33;;
55312;SDS011;46892;45.668;11.756;2023-05-20T08:18:17;7.50;;;4.50;;
55312;SDS011;46892;45.668;11.756;2023-05-20T08:20:43;6.93;;;4.00;;
55312;SDS011;46892;45.668;11.756;2023-05-20T08:23:08;5.77;;;4.37;;
55312;SDS011;46892;45.668;11.756;2023-05-20T08:25:34;7.07;;;4.57;;
55312;SDS011;46892;45.668;11.756;2023-05-20T08:28:00;6.67;;;4.70;;
55312;SDS011;46892;45.668;11.756;2023-05-20T08:30:28;6.23;;;4.50;;
55312;SDS011;46892;45.668;11.756;2023-05-20T08:32:54;7.07;;;5.13;;
55312;SDS011;46892;45.668;11.756;2023-05-20T08:35:21;7.07;;;4.80;;
55312;SDS011;46892;45.668;11.756;2023-05-20T08:37:50;6.85;;;5.32;;
55312;SDS011;46892;45.668;11.756;2023-05-20T08:40:18;7.37;;;5.30;;
55312;SDS011;46892;45.668;11.756;2023-05-20T08:42:45;7.73;;;5.10;;
55312;SDS011;46892;45.668;11.756;2023-05-20T08:45:13;10.17;;;5.90;;
55312;SDS011;46892;45.668;11.756;2023-05-20T08:47:42;6.57;;;5.00;;
55312;SDS011;46892;45.668;11.756;2023-05-20T08:50:08;7.33;;;5.30;;
55312;SDS011;46892;45.668;11.756;2023-05-20T08:52:36;7.17;;;4.90;;
55312;SDS011;46892;45.668;11.756;2023-05-20T08:55:06;7.90;;;5.50;;
55312;SDS011;46892;45.668;11.756;2023-05-20T08:57:33;8.53;;;5.80;;
55312;SDS011;46892;45.668;11.756;2023-05-20T09:00:01;7.37;;;5.43;;
55312;SDS011;46892;45.668;11.756;2023-05-20T09:02:35;6.27;;;5.03;;
55312;SDS011;46892;45.668;11.756;2023-05-20T09:05:02;7.63;;;5.70;;
55312;SDS011;46892;45.668;11.756;2023-05-20T09:07:29;7.57;;;5.50;;
55312;SDS011;46892;45.668;11.756;2023-05-20T09:09:55;6.90;;;5.70;;
55312;SDS011;46892;45.668;11.756;2023-05-20T09:12:21;8.30;;;5.43;;
55312;SDS011;46892;45.668;11.756;2023-05-20T09:14:47;8.47;;;5.67;;
55312;SDS011;46892;45.668;11.756;2023-05-20T09:17:13;6.80;;;5.30;;
55312;SDS011;46892;45.668;11.756;2023-05-20T09:19:39;8.63;;;6.07;;
55312;SDS011;46892;45.668;11.756;2023-05-20T09:22:05;7.10;;;5.63;;
55312;SDS011;46892;45.668;11.756;2023-05-20T09:24:31;8.23;;;6.13;;
55312;SDS011;46892;45.668;11.756;2023-05-20T09:26:57;7.03;;;5.83;;
55312;SDS011;46892;45.668;11.756;2023-05-20T09:29:24;9.07;;;6.33;;
55312;SDS011;46892;45.668;11.756;2023-05-20T09:31:50;7.73;;;5.83;;
55312;SDS011;46892;45.668;11.756;2023-05-20T09:34:17;6.70;;;5.27;;
55312;SDS011;46892;45.668;11.756;2023-05-20T09:36:44;7.87;;;6.00;;
55312;SDS011;46892;45.668;11.756;2023-05-20T09:39:13;7.93;;;6.17;;
55312;SDS011;46892;45.668;11.756;2023-05-20T09:42:17;7.67;;;5.37;;
55312;SDS011;46892;45.668;11.756;2023-05-20T09:44:51;9.63;;;6.33;;
55312;SDS011;46892;45.668;11.756;2023-05-20T09:47:18;11.40;;;6.60;;
55312;SDS011;46892;45.668;11.756;2023-05-20T09:49:45;9.60;;;6.33;;
55312;SDS011;46892;45.668;11.756;2023-05-20T09:52:12;9.20;;;6.40;;
55312;SDS011;46892;45.668;11.756;2023-05-20T09:54:39;8.77;;;6.67;;
55312;SDS011;46892;45.668;11.756;2023-05-20T09:57:07;8.70;;;6.80;;
55312;SDS011;46892;45.668;11.756;2023-05-20T09:59:34;9.47;;;7.13;;
55312;SDS011;46892;45.668;11.756;2023-05-20T10:02:02;10.13;;;6.43;;
55312;SDS011;46892;45.668;11.756;2023-05-20T10:04:30;8.90;;;7.50;;
55312;SDS011;46892;45.668;11.756;2023-05-20T10:16:00;12.55;;;7.22;;
55312;SDS011;46892;45.668;11.756;2023-05-20T10:21:29;10.00;;;7.63;;
55312;SDS011;46892;45.668;11.756;2023-05-20T10:24:04;10.07;;;7.77;;
55312;SDS011;46892;45.668;11.756;2023-05-20T10:26:34;11.33;;;8.40;;
55312;SDS011;46892;45.668;11.756;2023-05-20T10:29:19;11.52;;;8.10;;
55312;SDS011;46892;45.668;11.756;2023-05-20T10:31:50;15.00;;;7.97;;
55312;SDS011;46892;45.668;11.756;2023-05-20T10:34:18;9.77;;;7.85;;
55312;SDS011;46892;45.668;11.756;2023-05-20T10:39:29;10.10;;;8.10;;
55312;SDS011;46892;45.668;11.756;2023-05-20T10:42:08;11.73;;;8.50;;
55312;SDS011;46892;45.668;11.756;2023-05-20T10:47:09;10.80;;;8.53;;
55312;SDS011;46892;45.668;11.756;2023-05-20T10:49:39;9.47;;;8.07;;
55312;SDS011;46892;45.668;11.756;2023-05-20T10:52:10;10.57;;;8.40;;
55312;SDS011;46892;45.668;11.756;2023-05-20T10:54:36;11.33;;;8.00;;
55312;SDS011;46892;45.668;11.756;2023-05-20T10:57:21;10.27;;;7.73;;
55312;SDS011;46892;45.668;11.756;2023-05-20T10:59:48;12.27;;;8.07;;
55312;SDS011;46892;45.668;11.756;2023-05-20T11:02:15;12.43;;;8.10;;
55312;SDS011;46892;45.668;11.756;2023-05-20T11:04:42;10.13;;;7.63;;
55312;SDS011;46892;45.668;11.756;2023-05-20T11:07:08;10.63;;;7.80;;
55312;SDS011;46892;45.668;11.756;2023-05-20T11:09:34;10.37;;;8.07;;
55312;SDS011;46892;45.668;11.756;2023-05-20T11:12:00;11.23;;;7.50;;
55312;SDS011;46892;45.668;11.756;2023-05-20T11:14:29;10.80;;;8.33;;
55312;SDS011;46892;45.668;11.756;2023-05-20T11:16:59;10.45;;;7.35;;
55312;SDS011;46892;45.668;11.756;2023-05-20T11:19:25;11.70;;;7.90;;
55312;SDS011;46892;45.668;11.756;2023-05-20T11:21:52;11.90;;;8.30;;
55312;SDS011;46892;45.668;11.756;2023-05-20T11:24:22;11.43;;;8.03;;
55312;SDS011;46892;45.668;11.756;2023-05-20T11:26:50;13.50;;;8.33;;
55312;SDS011;46892;45.668;11.756;2023-05-20T11:29:16;10.80;;;8.40;;
55312;SDS011;46892;45.668;11.756;2023-05-20T11:31:44;11.27;;;8.90;;
55312;SDS011;46892;45.668;11.756;2023-05-20T11:34:11;10.10;;;8.33;;
55312;SDS011;46892;45.668;11.756;2023-05-20T11:36:54;11.07;;;8.73;;
55312;SDS011;46892;45.668;11.756;2023-05-20T11:39:21;13.13;;;9.30;;
55312;SDS011;46892;45.668;11.756;2023-05-20T11:41:46;12.17;;;9.33;;
55312;SDS011;46892;45.668;11.756;2023-05-20T11:44:12;12.80;;;9.43;;
55312;SDS011;46892;45.668;11.756;2023-05-20T11:46:45;11.97;;;9.30;;
55312;SDS011;46892;45.668;11.756;2023-05-20T11:49:12;10.77;;;8.80;;
55312;SDS011;46892;45.668;11.756;2023-05-20T11:51:38;12.67;;;9.90;;
55312;SDS011;46892;45.668;11.756;2023-05-20T11:54:05;21.13;;;16.63;;
55312;SDS011;46892;45.668;11.756;2023-05-20T11:56:32;16.30;;;12.63;;
55312;SDS011;46892;45.668;11.756;2023-05-20T11:59:00;14.77;;;11.53;;
55312;SDS011;46892;45.668;11.756;2023-05-20T12:01:28;13.17;;;10.37;;
55312;SDS011;46892;45.668;11.756;2023-05-20T12:03:55;13.77;;;9.77;;
55312;SDS011;46892;45.668;11.756;2023-05-20T12:06:21;14.03;;;10.70;;
55312;SDS011;46892;45.668;11.756;2023-05-20T12:08:46;11.73;;;9.63;;
55312;SDS011;46892;45.668;11.756;2023-05-20T12:11:12;12.77;;;10.53;;
55312;SDS011;46892;45.668;11.756;2023-05-20T12:13:38;12.93;;;10.57;;
55312;SDS011;46892;45.668;11.756;2023-05-20T12:16:05;17.90;;;14.70;;
55312;SDS011;46892;45.668;11.756;2023-05-20T12:18:31;16.13;;;11.03;;
55312;SDS011;46892;45.668;11.756;2023-05-20T12:20:57;19.77;;;14.30;;
55312;SDS011;46892;45.668;11.756;2023-05-20T12:23:23;15.13;;;10.10;;
55312;SDS011;46892;45.668;11.756;2023-05-20T12:25:50;28.63;;;18.37;;
55312;SDS011;46892;45.668;11.756;2023-05-20T12:28:16;13.87;;;11.03;;
55312;SDS011;46892;45.668;11.756;2023-05-20T12:30:42;11.17;;;9.30;;
55312;SDS011;46892;45.668;11.756;2023-05-20T12:33:08;13.13;;;9.73;;
55312;SDS011;46892;45.668;11.756;2023-05-20T12:35:38;11.83;;;10.27;;
55312;SDS011;46892;45.668;11.756;2023-05-20T12:38:04;13.57;;;10.07;;
55312;SDS011;46892;45.668;11.756;2023-05-20T12:40:31;11.50;;;9.47;;
55312;SDS011;46892;45.668;11.756;2023-05-20T12:42:57;14.20;;;10.83;;
55312;SDS011;46892;45.668;11.756;2023-05-20T12:45:24;13.63;;;10.70;;
55312;SDS011;46892;45.668;11.756;2023-05-20T12:47:50;13.40;;;10.77;;
55312;SDS011;46892;45.668;11.756;2023-05-20T12:50:15;13.40;;;9.80;;
55312;SDS011;46892;45.668;11.756;2023-05-20T12:52:41;12.00;;;9.83;;
55312;SDS011;46892;45.668;11.756;2023-05-20T12:55:07;13.17;;;10.83;;
55312;SDS011;46892;45.668;11.756;2023-05-20T13:00:10;13.30;;;11.00;;
55312;SDS011;46892;45.668;11.756;2023-05-20T13:02:37;14.20;;;11.90;;
55312;SDS011;46892;45.668;11.756;2023-05-20T13:05:04;13.97;;;11.77;;
55312;SDS011;46892;45.668;11.756;2023-05-20T13:07:30;11.27;;;10.07;;
55312;SDS011;46892;45.668;11.756;2023-05-20T13:09:57;14.90;;;11.83;;
55312;SDS011;46892;45.668;11.756;2023-05-20T13:12:23;15.07;;;12.77;;
55312;SDS011;46892;45.668;11.756;2023-05-20T13:14:48;13.90;;;11.73;;
55312;SDS011;46892;45.668;11.756;2023-05-20T13:17:14;15.07;;;12.63;;
55312;SDS011;46892;45.668;11.756;2023-05-20T13:19:40;15.77;;;12.70;;
55312;SDS011;46892;45.668;11.756;2023-05-20T13:22:06;15.93;;;12.37;;
55312;SDS011;46892;45.668;11.756;2023-05-20T13:24:33;16.83;;;14.20;;
55312;SDS011;46892;45.668;11.756;2023-05-20T13:26:59;14.87;;;13.23;;
55312;SDS011;46892;45.668;11.756;2023-05-20T13:29:25;16.33;;;13.33;;
55312;SDS011;46892;45.668;11.756;2023-05-20T13:31:51;19.43;;;13.20;;
55312;SDS011;46892;45.668;11.756;2023-05-20T13:34:17;17.63;;;13.20;;
55312;SDS011;46892;45.668;11.756;2023-05-20T13:36:43;15.67;;;13.10;;
55312;SDS011;46892;45.668;11.756;2023-05-20T13:39:11;14.50;;;12.60;;
55312;SDS011;46892;45.668;11.756;2023-05-20T13:41:37;14.60;;;12.67;;
55312;SDS011;46892;45.668;11.756;2023-05-20T13:44:02;15.07;;;12.07;;
55312;SDS011;46892;45.668;11.756;2023-05-20T13:46:28;14.00;;;11.90;;
55312;SDS011;46892;45.668;11.756;2023-05-20T13:48:54;13.93;;;11.83;;
55312;SDS011;46892;45.668;11.756;2023-05-20T13:51:20;14.63;;;12.13;;
55312;SDS011;46892;45.668;11.756;2023-05-20T13:53:45;16.60;;;12.60;;
55312;SDS011;46892;45.668;11.756;2023-05-20T13:56:11;14.27;;;12.70;;
55312;SDS011;46892;45.668;11.756;2023-05-20T13:58:37;15.00;;;12.07;;
55312;SDS011;46892;45.668;11.756;2023-05-20T14:01:03;15.10;;;12.50;;
55312;SDS011;46892;45.668;11.756;2023-05-20T14:03:30;18.03;;;12.73;;
55312;SDS011;46892;45.668;11.756;2023-05-20T14:06:01;15.17;;;12.50;;
55312;SDS011;46892;45.668;11.756;2023-05-20T14:08:27;15.97;;;12.37;;
55312;SDS011;46892;45.668;11.756;2023-05-20T14:10:52;15.97;;;12.67;;
55312;SDS011;46892;45.668;11.756;2023-05-20T14:13:22;14.57;;;12.67;;
55312;SDS011;46892;45.668;11.756;2023-05-20T14:15:49;17.75;;;13.23;;
55312;SDS011;46892;45.668;11.756;2023-05-20T14:18:16;15.13;;;12.43;;
55312;SDS011;46892;45.668;11.756;2023-05-20T14:20:43;15.67;;;12.70;;
55312;SDS011;46892;45.668;11.756;2023-05-20T14:23:09;15.57;;;12.27;;
55312;SDS011;46892;45.668;11.756;2023-05-20T14:25:35;15.80;;;13.17;;
55312;SDS011;46892;45.668;11.756;2023-05-20T14:28:01;16.00;;;13.50;;
55312;SDS011;46892;45.668;11.756;2023-05-20T14:30:26;15.03;;;12.20;;
55312;SDS011;46892;45.668;11.756;2023-05-20T14:32:52;15.53;;;13.57;;
55312;SDS011;46892;45.668;11.756;2023-05-20T14:35:18;17.30;;;12.77;;
55312;SDS011;46892;45.668;11.756;2023-05-20T14:37:44;16.20;;;13.13;;
55312;SDS011;46892;45.668;11.756;2023-05-20T14:40:10;15.17;;;12.93;;
55312;SDS011;46892;45.668;11.756;2023-05-20T14:42:36;15.20;;;13.60;;
55312;SDS011;46892;45.668;11.756;2023-05-20T14:45:02;16.67;;;13.70;;
55312;SDS011;46892;45.668;11.756;2023-05-20T14:47:28;19.83;;;14.20;;